Time;durP1;ratioP1;P1;durP2;ratioP2;P2;SDS_P1;SDS_P2;PMS_P1;PMS_P2;Temp;Humidity;BMP_temperature;BMP_pressure;BME280_temperature;BME280_humidity;BME280_pressure;Samples;Min_cycle;Max_cycle;Signal;HPM_P1;HPM_P2
2023/06/07 04:43:05;;;;;;;9.27;6.90;;;10.40;99.90;;;;;;5130005;27;20287;-85
2023/06/07 04:53:03;;;;;;;10.23;6.93;;;;;;;;;;5138000;27;20270;-85
2023/06/07 05:01:36;;;;;;;9.23;7.07;;;;;;;;;;5122299;27;20371;-85
2023/06/07 05:08:27;;;;;;;6.87;6.17;;;;;;;;;;5137497;27;20283;-82
2023/06/07 05:15:08;;;;;;;12.67;6.80;;;;;;;;;;5134076;27;20726;-81
2023/06/07 05:21:58;;;;;;;8.20;6.43;;;11.80;99.90;;;;;;5113274;27;20269;-81
2023/06/07 05:28:47;;;;;;;5.90;5.20;;;;;;;;;;5112977;27;20544;-83
2023/06/07 05:34:07;;;;;;;8.77;5.53;;;12.20;99.90;;;;;;5135807;27;20267;-81
2023/06/07 05:40:10;;;;;;;5.37;4.87;;;12.40;99.90;;;;;;5135567;27;20277;-81
2023/06/07 05:45:55;;;;;;;5.63;5.13;;;12.40;99.90;;;;;;5135891;27;20280;-81
2023/06/07 05:51:49;;;;;;;10.70;5.50;;;12.50;99.90;;;;;;5134893;27;20282;-81
2023/06/07 05:56:25;;;;;;;5.17;4.67;;;12.60;99.90;;;;;;5135457;27;20275;-82
2023/06/07 06:01:21;;;;;;;5.43;4.40;;;12.90;99.90;;;;;;5135717;27;20626;-82
2023/06/07 06:06:18;;;;;;;14.03;5.03;;;13.20;99.90;;;;;;5134224;27;20268;-81
2023/06/07 06:11:03;;;;;;;6.10;5.00;;;;;;;;;;5128881;27;20270;-85
2023/06/07 06:15:56;;;;;;;9.23;4.93;;;;;;;;;;5136476;27;20270;-85
2023/06/07 06:19:43;;;;;;;5.33;4.77;;;13.80;99.90;;;;;;5138104;27;20267;-85
2023/06/07 06:23:40;;;;;;;7.20;4.93;;;13.90;99.90;;;;;;5150691;27;20332;-85
2023/06/07 06:27:38;;;;;;;5.00;3.83;;;13.80;99.90;;;;;;5137022;27;20283;-84
2023/06/07 06:31:32;;;;;;;6.47;4.20;;;14.10;99.90;;;;;;5117399;27;20270;-84
2023/06/07 06:35:32;;;;;;;5.00;4.27;;;14.30;99.90;;;;;;5096508;27;20265;-86
2023/06/07 06:39:26;;;;;;;5.03;4.10;;;14.50;99.90;;;;;;5138088;27;20282;-85
2023/06/07 06:43:24;;;;;;;4.53;4.13;;;14.70;99.90;;;;;;5138102;27;20267;-84
2023/06/07 06:47:24;;;;;;;5.27;4.07;;;14.80;99.90;;;;;;5139755;27;20291;-84
2023/06/07 06:51:22;;;;;;;6.20;4.50;;;14.90;99.90;;;;;;5138191;27;20596;-84
2023/06/07 06:55:21;;;;;;;4.97;4.13;;;15.10;99.90;;;;;;5137644;27;20267;-84
2023/06/07 06:59:20;;;;;;;9.07;3.90;;;15.20;99.90;;;;;;5137511;27;20609;-85
2023/06/07 07:03:22;;;;;;;4.67;3.60;;;15.50;99.90;;;;;;5119896;27;20535;-83
2023/06/07 07:07:20;;;;;;;3.97;3.57;;;15.50;99.90;;;;;;5136775;27;20289;-82
2023/06/07 07:11:19;;;;;;;3.77;3.00;;;15.70;99.90;;;;;;5137548;27;20809;-84
2023/06/07 07:15:18;;;;;;;8.97;3.27;;;16.30;99.90;;;;;;5138559;27;20276;-85
2023/06/07 07:20:19;;;;;;;8.90;3.87;;;16.60;99.90;;;;;;5137394;27;20275;-85
2023/06/07 07:22:46;;;;;;;11.37;3.17;;;;;;;;;;5137681;28;20247;-85
2023/06/07 07:25:12;;;;;;;6.37;3.47;;;16.70;99.90;;;;;;5119482;28;20658;-85
2023/06/07 07:27:38;;;;;;;5.00;3.03;;;16.80;99.90;;;;;;5123035;28;20187;-86
2023/06/07 07:32:14;;;;;;;5.13;3.10;;;16.90;99.90;;;;;;5137985;27;20277;-85
2023/06/07 07:34:40;;;;;;;4.30;2.60;;;17.00;99.90;;;;;;5119219;28;20243;-85
2023/06/07 07:37:06;;;;;;;3.10;2.80;;;17.20;99.90;;;;;;5119075;28;20179;-86
2023/06/07 07:39:32;;;;;;;2.83;2.20;;;17.30;99.90;;;;;;5138660;27;20161;-85
2023/06/07 07:41:58;;;;;;;3.97;2.30;;;17.40;99.90;;;;;;5137381;28;20184;-86
2023/06/07 07:44:23;;;;;;;4.37;2.70;;;17.50;99.90;;;;;;5138569;27;20172;-85
2023/06/07 07:46:49;;;;;;;3.40;2.90;;;17.70;99.90;;;;;;5138188;27;20264;-85
2023/06/07 07:49:14;;;;;;;2.70;2.43;;;17.80;99.90;;;;;;5138892;27;20183;-85
2023/06/07 07:51:40;;;;;;;3.07;2.70;;;17.80;99.90;;;;;;5138429;28;20209;-85
2023/06/07 07:54:06;;;;;;;3.87;2.67;;;17.90;99.90;;;;;;5136419;28;20181;-84
2023/06/07 07:56:31;;;;;;;3.13;2.47;;;18.00;99.90;;;;;;5137666;28;20197;-84
2023/06/07 07:58:57;;;;;;;6.63;2.93;;;18.10;99.90;;;;;;5137385;28;20198;-85
2023/06/07 08:01:23;;;;;;;4.40;2.47;;;18.30;99.90;;;;;;5135493;28;20180;-85
2023/06/07 08:03:50;;;;;;;3.87;2.50;;;18.60;99.90;;;;;;5135286;28;20268;-85
2023/06/07 08:06:16;;;;;;;2.27;2.03;;;18.60;99.90;;;;;;5134428;28;20178;-85
2023/06/07 08:08:42;;;;;;;2.97;2.47;;;18.70;99.90;;;;;;5134797;28;20705;-85
2023/06/07 08:11:07;;;;;;;2.60;2.40;;;18.90;99.90;;;;;;5134836;28;20210;-85
2023/06/07 08:13:33;;;;;;;2.87;2.17;;;19.10;99.90;;;;;;5136340;27;20181;-85
2023/06/07 08:15:59;;;;;;;4.13;2.50;;;19.20;99.90;;;;;;5134811;28;20224;-85
2023/06/07 08:18:24;;;;;;;4.43;2.50;;;19.40;99.90;;;;;;5136622;27;20604;-85
2023/06/07 08:20:51;;;;;;;2.97;2.73;;;19.40;99.90;;;;;;5134910;28;20652;-85
2023/06/07 08:23:16;;;;;;;5.03;2.70;;;19.60;99.90;;;;;;5135238;28;20198;-85
2023/06/07 08:25:42;;;;;;;4.00;3.37;;;19.70;99.90;;;;;;5136885;27;20171;-85
2023/06/07 08:28:08;;;;;;;3.77;2.77;;;19.90;99.90;;;;;;5136825;28;20199;-86
2023/06/07 08:30:34;;;;;;;3.23;2.63;;;20.00;99.90;;;;;;5135418;27;20213;-85
2023/06/07 08:32:59;;;;;;;3.63;2.77;;;20.10;99.90;;;;;;5133425;27;20173;-85
2023/06/07 08:35:25;;;;;;;2.83;2.60;;;20.20;99.90;;;;;;5132166;28;20181;-85
2023/06/07 08:37:51;;;;;;;4.67;2.40;;;20.20;99.90;;;;;;5133408;27;20193;-85
2023/06/07 08:40:18;;;;;;;3.57;3.13;;;20.40;99.90;;;;;;5132299;27;20179;-85
2023/06/07 08:42:44;;;;;;;3.27;2.97;;;20.60;99.90;;;;;;5123541;27;20701;-85
2023/06/07 08:45:10;;;;;;;3.63;2.97;;;20.80;99.90;;;;;;5130321;28;20182;-85
2023/06/07 08:47:37;;;;;;;3.70;3.03;;;20.90;99.90;;;;;;5120750;28;20577;-86
2023/06/07 08:50:03;;;;;;;10.77;3.20;;;21.10;99.90;;;;;;5120575;28;20542;-86
2023/06/07 08:52:31;;;;;;;4.67;2.90;;;21.30;99.90;;;;;;5120003;28;20188;-86
2023/06/07 08:55:02;;;;;;;4.17;3.13;;;21.60;99.90;;;;;;5121964;28;20183;-86
2023/06/07 08:57:29;;;;;;;3.53;2.80;;;21.70;99.90;;;;;;5119502;28;20267;-86
2023/06/07 08:59:56;;;;;;;3.40;3.10;;;22.00;99.90;;;;;;5122095;28;20176;-86
2023/06/07 09:02:24;;;;;;;6.40;3.50;;;22.00;99.90;;;;;;5122211;28;20176;-86
2023/06/07 09:04:51;;;;;;;3.57;3.13;;;21.90;99.90;;;;;;5121175;28;20231;-86
2023/06/07 09:07:16;;;;;;;3.37;2.60;;;22.00;99.90;;;;;;5121667;28;20195;-86
2023/06/07 09:09:43;;;;;;;4.23;3.00;;;22.10;99.90;;;;;;5121420;28;20172;-86
2023/06/07 09:12:10;;;;;;;4.57;2.80;;;22.20;99.90;;;;;;5122319;28;20203;-86
2023/06/07 09:14:36;;;;;;;5.80;2.93;;;22.40;99.90;;;;;;5121348;28;20186;-86
2023/06/07 09:17:03;;;;;;;2.67;2.47;;;;;;;;;;5122448;28;20703;-86
2023/06/07 09:19:35;;;;;;;3.30;2.80;;;22.60;99.90;;;;;;5123187;28;20171;-85
2023/06/07 09:22:02;;;;;;;2.87;2.60;;;22.70;99.90;;;;;;5124119;28;20178;-86
2023/06/07 09:24:29;;;;;;;4.50;2.33;;;22.80;99.90;;;;;;5123299;28;20187;-86
2023/06/07 09:26:55;;;;;;;7.00;3.00;;;22.90;99.90;;;;;;5122366;28;20194;-86
2023/06/07 09:29:22;;;;;;;3.50;2.67;;;23.10;99.90;;;;;;5121462;28;20175;-84
2023/06/07 09:31:48;;;;;;;4.70;2.37;;;23.30;99.90;;;;;;5120317;28;20203;-84
2023/06/07 09:34:25;;;;;;;3.60;2.10;;;23.70;99.90;;;;;;5122096;28;20200;-85
2023/06/07 09:36:56;;;;;;;4.40;2.30;;;23.80;99.90;;;;;;5122438;28;20236;-85
2023/06/07 09:39:27;;;;;;;3.10;2.33;;;23.90;99.90;;;;;;5123472;28;20190;-86
2023/06/07 09:41:57;;;;;;;4.33;2.30;;;23.80;99.90;;;;;;5124124;28;20190;-87
2023/06/07 09:44:29;;;;;;;5.50;2.60;;;23.80;99.90;;;;;;5124190;28;20178;-86
2023/06/07 09:46:56;;;;;;;2.60;2.40;;;24.00;99.30;;;;;;5124837;28;20675;-86
2023/06/07 09:49:28;;;;;;;5.90;2.20;;;;;;;;;;5125245;28;20212;-87
2023/06/07 09:51:55;;;;;;;3.80;2.17;;;;;;;;;;5126291;28;20555;-86
2023/06/07 09:54:43;;;;;;;4.60;2.47;;;24.20;99.90;;;;;;5126012;28;20176;-86
2023/06/07 09:57:27;;;;;;;4.50;2.33;;;24.40;98.20;;;;;;5122949;28;20248;-86
2023/06/07 10:00:13;;;;;;;2.60;1.80;;;24.60;99.90;;;;;;5124651;28;20163;-86
2023/06/07 10:02:41;;;;;;;2.80;2.37;;;24.60;99.90;;;;;;5127825;28;20198;-87
2023/06/07 10:05:07;;;;;;;3.90;2.30;;;24.70;99.60;;;;;;5122169;28;20243;-80
2023/06/07 10:07:37;;;;;;;5.47;2.93;;;24.90;99.90;;;;;;5120236;28;20187;-81
2023/06/07 10:10:03;;;;;;;2.77;2.27;;;24.90;98.80;;;;;;5119560;28;20512;-80
2023/06/07 10:12:34;;;;;;;2.80;2.23;;;25.10;98.70;;;;;;5119803;28;20169;-81
2023/06/07 10:15:03;;;;;;;3.97;2.40;;;25.20;99.20;;;;;;5120723;28;20188;-82
2023/06/07 10:17:54;;;;;;;2.53;2.20;;;25.30;98.60;;;;;;5118988;28;20213;-82
2023/06/07 10:20:26;;;;;;;2.40;2.20;;;25.50;99.90;;;;;;5119593;28;20218;-82
2023/06/07 10:22:57;;;;;;;5.83;2.40;;;25.70;99.10;;;;;;5120574;28;20175;-82
2023/06/07 10:25:26;;;;;;;2.90;2.40;;;25.70;96.70;;;;;;5119565;28;20645;-80
2023/06/07 10:28:07;;;;;;;6.23;2.73;;;25.80;97.00;;;;;;5116452;28;20286;-81
2023/06/07 10:30:35;;;;;;;2.73;2.20;;;26.00;97.30;;;;;;5115902;28;20329;-81
2023/06/07 10:33:06;;;;;;;3.40;2.10;;;25.80;93.40;;;;;;5118195;28;20598;-81
2023/06/07 10:35:34;;;;;;;4.43;2.77;;;25.90;97.40;;;;;;5118963;28;20164;-81
2023/06/07 10:37:59;;;;;;;3.60;2.77;;;26.00;97.20;;;;;;5120544;28;20248;-81
2023/06/07 10:40:25;;;;;;;3.50;2.23;;;26.10;95.30;;;;;;5119526;28;20235;-81
2023/06/07 10:42:55;;;;;;;3.53;2.43;;;26.50;94.80;;;;;;5118390;28;20631;-82
2023/06/07 10:45:21;;;;;;;2.03;1.93;;;26.90;92.90;;;;;;5118289;28;20645;-80
2023/06/07 10:47:50;;;;;;;3.07;2.77;;;26.90;90.30;;;;;;5118675;28;20206;-82
2023/06/07 10:50:28;;;;;;;2.80;2.37;;;27.20;88.70;;;;;;5117989;28;20206;-81
2023/06/07 10:53:03;;;;;;;3.57;2.70;;;26.80;87.90;;;;;;5119319;28;20174;-81
2023/06/07 10:55:31;;;;;;;2.60;2.40;;;27.10;91.30;;;;;;5119344;28;20239;-85
2023/06/07 10:57:58;;;;;;;5.20;2.47;;;27.10;86.00;;;;;;5121088;28;20286;-84
2023/06/07 11:00:31;;;;;;;2.90;2.30;;;27.30;88.80;;;;;;5123281;28;20273;-85
2023/06/07 11:03:15;;;;;;;4.03;2.57;;;27.40;84.60;;;;;;5118844;28;20186;-88
2023/06/07 11:05:53;;;;;;;4.37;2.93;;;27.40;84.10;;;;;;5127894;28;20172;-85
2023/06/07 11:08:29;;;;;;;3.20;2.60;;;27.50;83.00;;;;;;5123102;28;20198;-87
2023/06/07 11:11:00;;;;;;;3.07;2.73;;;27.30;79.40;;;;;;5135258;28;20230;-87
2023/06/07 11:13:46;;;;;;;2.80;2.43;;;26.50;79.50;;;;;;5122041;28;20555;-87
2023/06/07 11:16:24;;;;;;;5.23;3.00;;;25.70;85.00;;;;;;5117668;28;20176;-86
2023/06/07 11:19:00;;;;;;;4.90;2.83;;;25.20;87.90;;;;;;5119303;28;20191;-84
2023/06/07 11:21:30;;;;;;;2.80;2.50;;;25.20;85.80;;;;;;5121662;28;20171;-84
2023/06/07 11:24:14;;;;;;;4.57;3.00;;;25.90;86.50;;;;;;5120344;28;20179;-84
2023/06/07 11:26:40;;;;;;;4.57;2.70;;;26.70;80.90;;;;;;5119988;28;20187;-82
2023/06/07 11:29:09;;;;;;;3.60;2.60;;;27.30;81.40;;;;;;5117702;28;20231;-82
2023/06/07 11:31:35;;;;;;;3.93;2.63;;;27.70;81.80;;;;;;5116211;28;20264;-81
2023/06/07 11:34:04;;;;;;;3.63;2.50;;;28.10;83.10;;;;;;5116335;28;20171;-83
2023/06/07 11:36:31;;;;;;;3.07;2.80;;;28.50;84.40;;;;;;5116892;28;20266;-84
2023/06/07 11:38:59;;;;;;;3.17;2.60;;;28.60;82.50;;;;;;5118388;28;20219;-82
2023/06/07 11:41:25;;;;;;;3.20;2.60;;;28.80;89.60;;;;;;5117929;28;20492;-83
2023/06/07 11:43:51;;;;;;;3.73;2.33;;;29.10;83.50;;;;;;5122136;28;20180;-80
2023/06/07 11:46:17;;;;;;;2.50;2.30;;;28.90;73.80;;;;;;5122596;28;20183;-80
2023/06/07 11:48:43;;;;;;;2.80;2.53;;;28.70;72.50;;;;;;5120914;28;20281;-80
2023/06/07 11:51:09;;;;;;;4.03;2.57;;;29.10;71.20;;;;;;5116359;28;20251;-82
2023/06/07 11:53:35;;;;;;;3.30;2.90;;;29.30;72.40;;;;;;5116441;28;20183;-82
2023/06/07 11:56:01;;;;;;;3.73;2.40;;;29.10;75.50;;;;;;5116335;28;20231;-81
2023/06/07 11:58:30;;;;;;;3.33;2.57;;;29.40;75.00;;;;;;5116219;28;20197;-82
2023/06/07 12:00:57;;;;;;;2.83;2.60;;;29.50;66.60;;;;;;5125861;28;20180;-83
2023/06/07 12:03:23;;;;;;;3.07;2.77;;;29.40;68.30;;;;;;5118368;28;20174;-82
2023/06/07 12:05:50;;;;;;;5.33;2.77;;;29.60;66.40;;;;;;5117756;28;20198;-82
2023/06/07 12:08:17;;;;;;;3.07;2.50;;;29.60;79.30;;;;;;5116563;28;20652;-82
2023/06/07 12:10:51;;;;;;;4.10;2.43;;;29.80;69.40;;;;;;5116474;28;20200;-82
2023/06/07 12:13:21;;;;;;;3.23;2.87;;;30.10;75.90;;;;;;5117830;28;20185;-82
2023/06/07 12:15:56;;;;;;;5.87;2.60;;;30.80;69.50;;;;;;5115677;28;20217;-82
2023/06/07 12:18:29;;;;;;;2.93;2.43;;;30.60;67.10;;;;;;5122100;28;20304;-82
2023/06/07 12:21:04;;;;;;;4.53;2.63;;;30.90;68.40;;;;;;5119843;28;20299;-82
2023/06/07 12:23:30;;;;;;;4.03;3.03;;;30.90;68.70;;;;;;5123563;28;20224;-81
2023/06/07 12:26:14;;;;;;;8.03;3.37;;;30.80;69.00;;;;;;5123066;28;20179;-82
2023/06/07 12:28:42;;;;;;;8.67;2.90;;;30.80;62.00;;;;;;5121979;28;20187;-81
2023/06/07 12:31:20;;;;;;;5.87;3.37;;;30.70;63.40;;;;;;5121630;28;20593;-80
2023/06/07 12:34:06;;;;;;;5.07;2.97;;;30.70;63.90;;;;;;5121041;28;20714;-80
2023/06/07 12:36:33;;;;;;;3.73;2.73;;;30.90;67.80;;;;;;5120298;28;20175;-81
2023/06/07 12:39:03;;;;;;;5.23;2.77;;;31.60;66.90;;;;;;5120098;28;20187;-83
2023/06/07 12:41:30;;;;;;;3.43;3.00;;;31.80;60.60;;;;;;5120762;28;20176;-84
2023/06/07 12:43:58;;;;;;;3.00;2.50;;;32.10;63.90;;;;;;5120232;28;20800;-83
2023/06/07 12:46:24;;;;;;;6.60;2.80;;;31.90;62.30;;;;;;5121554;28;20243;-82
2023/06/07 12:48:51;;;;;;;5.87;2.63;;;32.00;65.50;;;;;;5120552;28;20194;-83
2023/06/07 12:51:16;;;;;;;3.23;2.83;;;32.10;62.90;;;;;;5120565;28;20256;-82
2023/06/07 12:53:42;;;;;;;6.00;3.00;;;32.30;64.70;;;;;;5122428;28;20175;-82
2023/06/07 12:56:08;;;;;;;5.53;3.10;;;32.20;58.60;;;;;;5120210;28;20181;-82
2023/06/07 12:58:34;;;;;;;3.40;2.60;;;31.70;63.00;;;;;;5121612;28;20252;-82
2023/06/07 13:01:02;;;;;;;3.00;2.60;;;31.50;62.30;;;;;;5122038;28;20540;-83
2023/06/07 13:03:28;;;;;;;5.40;2.90;;;31.40;62.20;;;;;;5122462;28;20290;-83
2023/06/07 13:05:54;;;;;;;3.20;2.83;;;31.30;60.30;;;;;;5121115;28;20282;-83
2023/06/07 13:08:20;;;;;;;3.67;2.70;;;31.20;62.00;;;;;;5121538;28;20237;-84
2023/06/07 13:10:46;;;;;;;3.77;2.63;;;31.20;59.90;;;;;;5124648;28;20734;-83
2023/06/07 13:13:13;;;;;;;4.10;2.73;;;31.00;61.00;;;;;;5125505;28;20242;-83
2023/06/07 13:15:39;;;;;;;3.00;2.57;;;31.00;63.80;;;;;;5136906;28;20175;-83
2023/06/07 13:18:05;;;;;;;5.67;2.97;;;31.20;59.80;;;;;;5130172;28;20198;-83
2023/06/07 13:20:31;;;;;;;3.77;2.80;;;30.70;62.90;;;;;;5127399;28;20249;-83
2023/06/07 13:22:57;;;;;;;3.97;2.77;;;30.90;57.00;;;;;;5129472;28;20185;-83
2023/06/07 13:25:23;;;;;;;2.73;2.43;;;30.80;57.00;;;;;;5127156;28;20179;-83
2023/06/07 13:27:48;;;;;;;6.60;3.40;;;31.20;66.60;;;;;;5121230;28;20204;-84
2023/06/07 13:30:14;;;;;;;7.23;2.90;;;31.20;59.80;;;;;;5119209;28;20278;-83
2023/06/07 13:32:41;;;;;;;5.40;3.43;;;30.90;61.50;;;;;;5120814;28;20167;-83
2023/06/07 13:35:07;;;;;;;3.20;2.90;;;30.60;61.60;;;;;;5121813;28;20178;-83
2023/06/07 13:37:32;;;;;;;3.40;3.10;;;29.40;66.60;;;;;;5125736;28;20219;-83
2023/06/07 13:39:58;;;;;;;4.07;3.10;;;29.40;61.60;;;;;;5118613;28;20171;-83
2023/06/07 13:42:26;;;;;;;3.30;3.00;;;29.50;58.70;;;;;;5118447;28;20188;-83
2023/06/07 13:44:52;;;;;;;3.53;3.23;;;29.00;60.20;;;;;;5117776;28;20259;-84
2023/06/07 13:47:20;;;;;;;8.00;3.20;;;29.30;60.10;;;;;;5120424;28;20207;-83
2023/06/07 13:49:45;;;;;;;7.77;3.10;;;29.40;64.30;;;;;;5119314;28;20182;-83
2023/06/07 13:52:11;;;;;;;8.30;3.07;;;29.40;65.80;;;;;;5119076;28;20320;-83
2023/06/07 13:54:37;;;;;;;3.33;2.50;;;29.70;64.00;;;;;;5119522;28;20255;-83
2023/06/07 13:57:03;;;;;;;6.30;3.07;;;29.80;65.90;;;;;;5117819;28;20195;-82
2023/06/07 13:59:29;;;;;;;5.67;2.87;;;29.70;63.40;;;;;;5119319;28;20170;-83
2023/06/07 14:01:58;;;;;;;4.37;3.20;;;29.90;65.60;;;;;;5120173;28;20259;-83
2023/06/07 14:04:25;;;;;;;4.57;2.60;;;30.00;59.10;;;;;;5118198;28;20637;-83
2023/06/07 14:06:51;;;;;;;5.20;2.60;;;29.70;65.80;;;;;;5117818;28;20195;-83
2023/06/07 14:09:19;;;;;;;3.63;2.53;;;29.50;66.00;;;;;;5118690;28;20180;-83
2023/06/07 14:11:46;;;;;;;4.80;3.17;;;29.40;60.40;;;;;;5119312;28;20272;-83
2023/06/07 14:14:12;;;;;;;3.27;2.80;;;29.30;59.30;;;;;;5119212;28;20183;-82
2023/06/07 14:16:38;;;;;;;3.67;2.63;;;29.40;64.60;;;;;;5118617;28;20175;-83
2023/06/07 14:19:04;;;;;;;3.07;2.53;;;29.70;67.10;;;;;;5119885;28;20196;-83
2023/06/07 14:21:31;;;;;;;5.67;3.00;;;29.40;59.00;;;;;;5118637;28;20523;-83
2023/06/07 14:23:57;;;;;;;3.90;2.50;;;29.40;58.30;;;;;;5119824;28;20176;-84
2023/06/07 14:26:22;;;;;;;2.60;2.40;;;29.30;59.10;;;;;;5119834;28;20180;-84
2023/06/07 14:28:48;;;;;;;2.80;2.60;;;29.10;65.80;;;;;;5120442;28;20200;-84
2023/06/07 14:31:16;;;;;;;4.27;2.70;;;29.30;63.90;;;;;;5120711;28;20216;-83
2023/06/07 14:33:43;;;;;;;4.17;2.50;;;29.20;65.60;;;;;;5120672;28;20183;-84
2023/06/07 14:36:09;;;;;;;4.07;2.77;;;29.30;63.70;;;;;;5119167;28;20228;-84
2023/06/07 14:38:35;;;;;;;3.50;2.70;;;29.60;61.10;;;;;;5119116;28;20666;-84
2023/06/07 14:41:01;;;;;;;2.77;2.53;;;29.50;61.20;;;;;;5118990;28;20177;-84
2023/06/07 14:43:27;;;;;;;6.50;2.80;;;29.60;65.60;;;;;;5118311;28;20187;-85
2023/06/07 14:45:53;;;;;;;2.80;2.60;;;29.80;59.40;;;;;;5119551;28;20569;-85
2023/06/07 14:48:18;;;;;;;7.10;2.60;;;30.00;61.70;;;;;;5119329;28;20219;-85
2023/06/07 14:50:44;;;;;;;5.40;2.80;;;29.60;58.20;;;;;;5119662;28;20196;-85
2023/06/07 14:53:10;;;;;;;3.53;2.57;;;29.10;59.10;;;;;;5120266;28;20188;-85
2023/06/07 14:55:36;;;;;;;3.40;2.80;;;29.00;62.40;;;;;;5120768;28;20172;-85
2023/06/07 14:58:04;;;;;;;3.17;2.63;;;29.20;64.40;;;;;;5120891;28;20195;-85
2023/06/07 15:00:31;;;;;;;2.50;2.30;;;29.20;60.00;;;;;;5128561;28;20177;-86
2023/06/07 15:02:57;;;;;;;4.40;2.70;;;29.30;61.40;;;;;;5127975;28;20199;-85
2023/06/07 15:05:23;;;;;;;3.03;2.70;;;29.40;61.40;;;;;;5117107;28;20184;-85
2023/06/07 15:07:49;;;;;;;3.27;2.33;;;29.00;62.70;;;;;;5117299;28;20201;-85
2023/06/07 15:10:15;;;;;;;6.37;2.57;;;29.10;59.90;;;;;;5127247;28;20184;-85
2023/06/07 15:12:41;;;;;;;4.90;2.90;;;29.20;61.50;;;;;;5119718;28;20174;-85
2023/06/07 15:15:07;;;;;;;5.30;2.60;;;29.30;60.80;;;;;;5119588;28;20184;-85
2023/06/07 15:17:33;;;;;;;3.20;2.23;;;29.60;58.20;;;;;;5118251;28;20796;-84
2023/06/07 15:19:59;;;;;;;2.97;2.73;;;29.80;59.60;;;;;;5117649;28;20205;-85
2023/06/07 15:22:24;;;;;;;2.77;2.57;;;29.30;57.90;;;;;;5118336;28;20536;-81
2023/06/07 15:24:50;;;;;;;3.80;2.50;;;29.10;61.70;;;;;;5117448;28;20177;-84
2023/06/07 15:27:16;;;;;;;3.43;2.67;;;29.20;60.20;;;;;;5118115;28;20223;-84
2023/06/07 15:29:42;;;;;;;3.97;2.60;;;28.70;56.20;;;;;;5118461;28;20177;-84
2023/06/07 15:32:07;;;;;;;2.60;2.40;;;28.50;59.30;;;;;;5118143;28;20235;-84
2023/06/07 15:34:34;;;;;;;2.50;2.20;;;;;;;;;;5117313;28;20621;-84
2023/06/07 15:37:00;;;;;;;3.63;2.70;;;;;;;;;;5116093;28;20198;-84
2023/06/07 15:39:25;;;;;;;4.07;2.80;;;28.60;61.20;;;;;;5117018;28;20170;-84
2023/06/07 15:41:52;;;;;;;3.00;2.60;;;28.80;64.60;;;;;;5117449;28;20185;-84
2023/06/07 15:44:19;;;;;;;3.00;2.70;;;28.80;59.00;;;;;;5117091;28;20185;-84
2023/06/07 15:46:47;;;;;;;3.73;2.60;;;28.80;59.00;;;;;;5118148;28;20180;-84
2023/06/07 15:49:12;;;;;;;3.87;2.90;;;28.60;58.80;;;;;;5115408;28;20201;-83
2023/06/07 15:51:38;;;;;;;3.60;2.57;;;28.70;59.30;;;;;;5114235;28;20268;-83
2023/06/07 15:54:04;;;;;;;2.80;2.60;;;28.70;59.90;;;;;;5117583;28;20202;-83
2023/06/07 15:56:29;;;;;;;3.63;2.53;;;28.50;57.40;;;;;;5125115;28;20184;-83
2023/06/07 15:58:55;;;;;;;3.70;2.70;;;27.70;58.80;;;;;;5123447;28;20554;-84
2023/06/07 16:01:22;;;;;;;2.83;2.23;;;27.10;63.60;;;;;;5120556;28;20184;-83
2023/06/07 16:03:48;;;;;;;2.60;2.37;;;27.30;65.40;;;;;;5122222;28;20232;-84
2023/06/07 16:06:13;;;;;;;4.67;2.67;;;27.10;59.00;;;;;;5120864;28;20207;-84
2023/06/07 16:08:39;;;;;;;3.60;2.60;;;26.70;60.80;;;;;;5120372;28;20206;-83
2023/06/07 16:11:05;;;;;;;3.23;2.50;;;26.60;64.10;;;;;;5121732;28;20587;-82
2023/06/07 16:13:31;;;;;;;3.90;2.70;;;;;;;;;;5121288;28;20184;-83
2023/06/07 16:15:57;;;;;;;5.00;2.87;;;26.60;60.50;;;;;;5120686;28;20261;-83
2023/06/07 16:18:22;;;;;;;4.67;2.53;;;26.40;63.80;;;;;;5121504;28;20218;-82
2023/06/07 16:20:48;;;;;;;2.87;2.60;;;26.30;60.80;;;;;;5119869;28;20190;-83
2023/06/07 16:23:14;;;;;;;3.03;2.73;;;26.10;62.60;;;;;;5121994;28;20175;-83
2023/06/07 16:25:40;;;;;;;3.30;2.93;;;25.70;61.50;;;;;;5120826;28;20176;-83
2023/06/07 16:28:05;;;;;;;4.00;2.60;;;25.40;61.70;;;;;;5119241;28;20205;-83
2023/06/07 16:30:31;;;;;;;3.20;2.90;;;25.10;64.00;;;;;;5120285;28;20219;-82
2023/06/07 16:32:57;;;;;;;3.47;2.90;;;24.70;64.10;;;;;;5120574;28;20201;-83
2023/06/07 16:35:22;;;;;;;4.43;2.80;;;24.30;63.70;;;;;;5120729;28;20178;-82
2023/06/07 16:37:48;;;;;;;5.37;3.03;;;23.90;64.60;;;;;;5120382;28;20204;-83
2023/06/07 16:40:14;;;;;;;3.80;3.17;;;23.60;66.60;;;;;;5122086;28;20172;-83
2023/06/07 16:42:40;;;;;;;6.57;3.13;;;23.40;65.80;;;;;;5125905;28;20175;-82
2023/06/07 16:45:10;;;;;;;3.17;2.90;;;23.20;66.30;;;;;;5123168;28;20188;-83
2023/06/07 16:47:36;;;;;;;3.30;2.63;;;23.00;67.10;;;;;;5121743;28;20217;-83
2023/06/07 16:50:03;;;;;;;6.27;3.03;;;22.70;67.00;;;;;;5123317;28;20188;-82
2023/06/07 16:52:30;;;;;;;3.30;3.00;;;22.70;67.60;;;;;;5120018;28;20210;-82
2023/06/07 16:54:58;;;;;;;3.90;2.60;;;;;;;;;;5120222;28;20218;-82
2023/06/07 16:57:24;;;;;;;4.67;2.73;;;22.50;70.10;;;;;;5120383;28;20202;-82
2023/06/07 17:17:51;;;;;;;4.33;2.43;;;21.90;69.10;;;;;;5134800;27;20764;-83
2023/06/07 17:26:42;;;;;;;11.00;3.07;;;21.80;67.00;;;;;;5134245;27;20268;-83
2023/06/07 17:36:26;;;;;;;4.43;3.20;;;21.50;67.20;;;;;;5092897;28;20274;-83
2023/06/07 17:48:19;;;;;;;5.77;2.80;;;21.30;68.50;;;;;;5136954;27;20283;-84
2023/06/07 18:03:31;;;;;;;4.27;2.63;;;21.00;71.60;;;;;;5137396;27;20278;-83
2023/06/07 18:23:55;;;;;;;6.30;3.13;;;20.50;75.90;;;;;;5132297;27;20358;-84
